ZF1RC George Town KY current weather conditions

sailwx.info

Wind from 065 at 1 knots gusting 1

Air temperature 26.1° C
Dewpoint 23.0° C

Last reported at 2015-Aug-03 05:50 UTC.
Time now 2015-Aug-03 06:34 UTC

Location: N 19°16' W 081°23'.
View on Google Maps.

See reports from other nearby stations

  
Tides and Currents Weather Stations Pressure Air Temp Water Temp Dewpoint Dewpoint Depression Visibility Wind Speed Wind Dir Waves Ship Positions
date/time (UTC)wind fromknots sea level pressurealtimeterstation pressurevisibilityair tempwater tempwave heightnotes
2015-Aug-03 05:50 065 1 gusting 1 26.1
2015-Aug-03 05:40 082 26.1
2015-Aug-03 05:30 073 0 gusting 1 26.1
2015-Aug-03 05:20 085 0 gusting 1 26.1
2015-Aug-03 05:10 117 1 gusting 2 26.1
2015-Aug-03 05:00 068 0 gusting 0 26.1
2015-Aug-03 04:50 094 0 gusting 1 26.1
2015-Aug-03 04:40 074 0 gusting 0 26.1
2015-Aug-03 04:30 094 0 gusting 1 26.1
2015-Aug-03 04:20 096 0 gusting 1 25.6
2015-Aug-03 04:10 093 0 gusting 0 26.1
2015-Aug-03 04:00 060 0 gusting 0 26.1
2015-Aug-03 03:50 084 0 gusting 0 26.1
2015-Aug-03 03:40 071 0 gusting 0 26.1
2015-Aug-03 03:30 083 0 gusting 1 26.1
2015-Aug-03 03:20 109 0 gusting 1 26.1
2015-Aug-03 03:10 102 1 gusting 1 26.1
2015-Aug-03 03:00 091 0 gusting 1 26.1
2015-Aug-03 02:50 083 1 gusting 1 26.1
2015-Aug-03 02:40 082 1 gusting 1 26.7
2015-Aug-03 02:30 080 1 gusting 1 26.7
2015-Aug-03 02:20 091 1 gusting 1 26.7
2015-Aug-03 02:10 097 0 gusting 1 26.7
2015-Aug-03 02:00 092 0 gusting 1 26.7
2015-Aug-03 01:50 100 0 gusting 1 26.7
2015-Aug-03 01:40 083 1 gusting 2 26.7
2015-Aug-03 01:30 095 2 gusting 2 27.2
2015-Aug-03 01:20 027 0 gusting 4 27.2
2015-Aug-03 01:10 093 3 gusting 4 27.2
2015-Aug-03 01:00 095 0 gusting 0 27.8
2015-Aug-03 00:50 120 0 gusting 1 27.8
2015-Aug-03 00:40 126 27.8
2015-Aug-03 00:30 283 27.8
2015-Aug-03 00:20 122 27.8
2015-Aug-03 00:10 073 27.8
2015-Aug-03 00:00 078 27.8
2015-Aug-02 23:50 053 0 gusting 1 28.3
2015-Aug-02 23:40 134 28.3
2015-Aug-02 23:30 015 28.3
2015-Aug-02 23:20 066 28.3
2015-Aug-02 23:10 110 28.9
2015-Aug-02 23:00 012 29.4
2015-Aug-02 22:54 339 29.4
2015-Aug-02 22:50 088 1 gusting 2 29.4
2015-Aug-02 22:40 098 1 gusting 5 29.4
2015-Aug-02 22:30 097 30.0
2015-Aug-02 22:20 104 28.9
2015-Aug-02 22:10 172 0 gusting 2 28.9
2015-Aug-02 22:00 058 0 gusting 1 28.9
2015-Aug-02 21:50 132 1 gusting 2 28.9
2015-Aug-02 21:40 122 0 gusting 1 28.9
2015-Aug-02 21:30 088 28.9
2015-Aug-02 21:20 090 1 gusting 4 28.9
2015-Aug-02 21:10 037 28.9
2015-Aug-02 21:00 101 28.3
2015-Aug-02 20:50 127 0 gusting 1 28.3
2015-Aug-02 20:40 102 28.3
2015-Aug-02 20:30 163 1 gusting 4 28.3
2015-Aug-02 20:20 180 1 gusting 4 28.3
2015-Aug-02 20:10 173 4 gusting 5 28.3
2015-Aug-02 20:00 204 1 gusting 4 28.9
2015-Aug-02 19:50 076 29.4
2015-Aug-02 19:40 155 2 gusting 5 29.4
2015-Aug-02 19:30 158 3 gusting 6 29.4
2015-Aug-02 19:20 009 1 gusting 4 30.6
2015-Aug-02 19:10 173 5 gusting 7 30.6
2015-Aug-02 19:00 171 0 gusting 6 31.1
2015-Aug-02 18:50 079 1 gusting 6 30.6
2015-Aug-02 18:40 084 30.6
2015-Aug-02 18:30 191 5 gusting 6 30.6
2015-Aug-02 18:20 180 3 gusting 6 30.6
2015-Aug-02 18:10 143 4 gusting 6 30.6
2015-Aug-02 18:00 186 2 gusting 6 31.7
2015-Aug-02 17:50 024 1 gusting 5 31.1
2015-Aug-02 17:40 166 3 gusting 5 31.7
2015-Aug-02 17:30 194 3 gusting 5 31.7
2015-Aug-02 17:20 333 31.7
2015-Aug-02 17:10 190 31.7
2015-Aug-02 17:00 069 0 gusting 1 31.7
2015-Aug-02 16:50 079 31.7
2015-Aug-02 16:40 158 31.7
2015-Aug-02 16:30 134 0 gusting 4 31.7
2015-Aug-02 16:20 057 31.7
2015-Aug-02 16:10 105 0 gusting 4 31.7
2015-Aug-02 16:00 096 31.1
2015-Aug-02 15:50 294 31.1
2015-Aug-02 15:40 118 0 gusting 2 31.1
2015-Aug-02 15:30 186 31.1
2015-Aug-02 15:20 240 0 gusting 5 30.6
2015-Aug-02 15:10 120 31.1
2015-Aug-02 15:00 154 0 gusting 1 30.6
2015-Aug-02 14:50 048 30.6
2015-Aug-02 14:40 010 1 gusting 1 30.6
2015-Aug-02 14:30 080 1 gusting 5 30.0
2015-Aug-02 14:20 316 2 gusting 5 30.0
2015-Aug-02 14:10 056 30.6
2015-Aug-02 14:00 150 30.0
2015-Aug-02 13:50 312 28.9
2015-Aug-02 13:40 053 27.8
2015-Aug-02 13:30 162 0 gusting 0 26.7
2015-Aug-02 13:20 045 1 gusting 4 27.8
2015-Aug-02 13:10 113 27.8
2015-Aug-02 13:00 141 27.8
2015-Aug-02 12:50 091 2 gusting 4 27.8
2015-Aug-02 12:40 062 4 gusting 5 28.3
2015-Aug-02 12:30 066 4 gusting 6 28.3
2015-Aug-02 12:20 100 2 gusting 4 28.3
2015-Aug-02 12:10 054 2 gusting 4 27.2
2015-Aug-02 12:00 087 1 gusting 2 26.7
2015-Aug-02 11:50 057 1 gusting 1 26.1
2015-Aug-02 11:40 024 0 gusting 1 26.1
2015-Aug-02 11:30 070 0 gusting 0 25.6
2015-Aug-02 11:20 057 0 gusting 0 25.6
2015-Aug-02 11:10 081 0 gusting 1 25.6
2015-Aug-02 11:00 094 0 gusting 1 25.6
2015-Aug-02 10:50 097 1 gusting 2 26.1
2015-Aug-02 10:40 102 1 gusting 2 26.1
2015-Aug-02 10:30 109 1 gusting 1 26.1
2015-Aug-02 10:20 091 1 gusting 1 26.1
2015-Aug-02 10:10 082 1 gusting 1 26.1
2015-Aug-02 10:00 094 1 gusting 1 26.1
2015-Aug-02 09:50 109 2 gusting 2 26.1
2015-Aug-02 09:40 073 0 gusting 2 26.7
2015-Aug-02 09:30 073 0 gusting 1 26.7
2015-Aug-02 09:20 191 26.7
2015-Aug-02 09:10 136 26.7
2015-Aug-02 09:00 084 26.7
2015-Aug-02 08:50 134 0 gusting 0 26.7
2015-Aug-02 08:40 102 26.7
2015-Aug-02 08:30 281 26.7
2015-Aug-02 08:20 118 26.1
2015-Aug-02 08:10 149 0 gusting 1 26.1
2015-Aug-02 08:00 068 26.1
2015-Aug-02 07:50 316 26.1
2015-Aug-02 07:40 099 1 gusting 2 26.1
2015-Aug-02 07:30 090 0 gusting 4 26.1
2015-Aug-02 07:20 103 2 gusting 2 26.1
2015-Aug-02 07:10 103 1 gusting 4 26.1
2015-Aug-02 07:00 091 0 gusting 0 26.1
2015-Aug-02 06:50 086 0 gusting 1 26.1
2015-Aug-02 06:40 099 1 gusting 2 26.7
2015-Aug-02 06:30 093 1 gusting 1 26.7
2015-Aug-02 06:20 097 1 gusting 2 26.7
2015-Aug-02 06:10 071 1 gusting 2 26.7
2015-Aug-02 06:00 136 0 gusting 1 26.7
2015-Aug-02 05:50 057 26.7
2015-Aug-02 05:40 084 0 gusting 1 26.7
2015-Aug-02 05:30 083 1 gusting 1 27.2
2015-Aug-02 05:20 064 1 gusting 1 26.7
2015-Aug-02 05:10 090 26.7
2015-Aug-02 05:00 096 1 gusting 2 26.7
2015-Aug-02 04:50 020 1 gusting 1 27.2
2015-Aug-02 04:40 096 1 gusting 2 27.2
2015-Aug-02 04:30 065 2 gusting 2 27.2
2015-Aug-02 04:20 097 0 gusting 1 27.2
2015-Aug-02 04:10 092 1 gusting 1 27.2
2015-Aug-02 04:00 101 2 gusting 2 27.2
2015-Aug-02 03:50 092 1 gusting 2 27.2
2015-Aug-02 03:40 107 1 gusting 2 27.2
2015-Aug-02 03:30 108 1 gusting 2 27.2
2015-Aug-02 03:20 105 0 gusting 4 27.2
2015-Aug-02 03:10 110 1 gusting 1 27.2
2015-Aug-02 03:00 094 2 gusting 4 27.2
2015-Aug-02 02:50 062 1 gusting 2 27.2
2015-Aug-02 02:40 086 1 gusting 4 27.8
2015-Aug-02 02:30 094 1 gusting 4 27.8
2015-Aug-02 02:20 120 2 gusting 4 27.8
2015-Aug-02 02:10 100 1 gusting 2 27.8
2015-Aug-02 02:00 060 2 gusting 2 27.8
2015-Aug-02 01:50 098 1 gusting 4 27.8
2015-Aug-02 01:40 086 1 gusting 2 27.8
2015-Aug-02 01:30 048 1 gusting 2 27.8
2015-Aug-02 01:20 111 1 gusting 4 28.3
2015-Aug-02 01:10 125 1 gusting 6 28.3
2015-Aug-02 01:00 098 2 gusting 4 28.3
2015-Aug-02 00:50 061 28.3
2015-Aug-02 00:40 108 1 gusting 1 28.3
2015-Aug-02 00:30 101 1 gusting 5 28.3
2015-Aug-02 00:19 087 2 gusting 2 28.3
2015-Aug-02 00:09 098 4 gusting 4 28.3
2015-Aug-02 00:00 171 28.9
2015-Aug-01 23:50 079 28.9
2015-Aug-01 23:40 315 0 gusting 0 28.9
2015-Aug-01 23:30 094 0 gusting 0 28.9
2015-Aug-01 23:20 120 29.4
2015-Aug-01 23:00 054 29.4
2015-Aug-01 22:53 013 29.4
2015-Aug-01 22:50 041 30.0
2015-Aug-01 22:40 041 31.1
2015-Aug-01 22:30 258 31.7
2015-Aug-01 22:20 146 31.7
2015-Aug-01 22:09 111 0 gusting 0 31.7
2015-Aug-01 22:00 176 31.7
2015-Aug-01 21:50 277 31.7
2015-Aug-01 21:40 325 32.2
2015-Aug-01 21:30 247 0 gusting 2 32.2
2015-Aug-01 21:20 109 1 gusting 1 32.2
2015-Aug-01 21:10 186 32.2
2015-Aug-01 20:59 167 0 gusting 4 31.7
2015-Aug-01 20:50 138 1 gusting 1 32.8
2015-Aug-01 20:40 354 0 gusting 1 32.2
2015-Aug-01 20:30 088 1 gusting 2 32.2
2015-Aug-01 20:20 164 32.2
2015-Aug-01 20:10 190 0 gusting 0 32.2
2015-Aug-01 20:00 223 32.2
2015-Aug-01 19:49 354 32.2
2015-Aug-01 19:40 285 32.8
2015-Aug-01 19:30 270 0 gusting 0 32.8
2015-Aug-01 19:20 188 32.8
2015-Aug-01 19:09 059 0 gusting 0 32.8
2015-Aug-01 18:59 172 0 gusting 1 32.2
2015-Aug-01 18:50 124 1 gusting 8 32.2
2015-Aug-01 18:40 173 0 gusting 1 32.8
2015-Aug-01 18:30 020 1 gusting 2 32.8
2015-Aug-01 18:20 225 0 gusting 1 32.2
2015-Aug-01 18:10 099 1 gusting 5 32.2
2015-Aug-01 17:59 139 0 gusting 1 32.2
2015-Aug-01 17:49 132 0 gusting 1 32.8
2015-Aug-01 17:40 003 32.8
2015-Aug-01 17:30 208 32.8
2015-Aug-01 17:19 284 1 gusting 2 32.8
2015-Aug-01 17:09 063 32.8
2015-Aug-01 16:59 112 0 gusting 2 32.2
2015-Aug-01 16:50 032 1 gusting 2 32.2
2015-Aug-01 16:40 029 32.2
2015-Aug-01 16:30 050 32.8
2015-Aug-01 16:19 146 32.2
2015-Aug-01 16:10 117 32.2
2015-Aug-01 15:59 043 0 gusting 0 32.2
2015-Aug-01 15:50 348 31.7
2015-Aug-01 15:39 045 31.7
2015-Aug-01 15:30 110 0 gusting 0 31.7
2015-Aug-01 15:20 270 31.7
2015-Aug-01 15:09 060 32.2
2015-Aug-01 14:59 088 32.2
2015-Aug-01 14:50 253 31.7
2015-Aug-01 14:39 167 31.7
2015-Aug-01 14:29 215 1 gusting 2 31.7
2015-Aug-01 14:20 078 0 gusting 1 31.7
2015-Aug-01 14:09 042 31.1
2015-Aug-01 13:59 336 1 gusting 4 30.6
2015-Aug-01 13:49 100 0 gusting 6 30.0
2015-Aug-01 13:39 155 1 gusting 4 30.6
2015-Aug-01 13:29 098 1 gusting 6 29.4
2015-Aug-01 13:20 071 2 gusting 5 29.4
2015-Aug-01 13:10 134 1 gusting 4 28.9
2015-Aug-01 12:59 101 2 gusting 5 28.3
2015-Aug-01 12:49 082 4 gusting 5 27.8
2015-Aug-01 12:39 109 1 gusting 4 27.2
2015-Aug-01 12:29 063 1 gusting 4 26.7
2015-Aug-01 12:19 094 2 gusting 2 26.1
2015-Aug-01 12:10 102 1 gusting 6 26.1
2015-Aug-01 11:59 102 2 gusting 5 25.6
2015-Aug-01 11:49 086 1 gusting 6 25.6
2015-Aug-01 11:39 087 4 gusting 6 25.6
2015-Aug-01 11:29 088 0 gusting 4 26.1
2015-Aug-01 11:19 090 1 gusting 2 26.1
2015-Aug-01 11:09 084 1 gusting 2 25.6
2015-Aug-01 10:59 060 0 gusting 1 25.6
2015-Aug-01 10:49 072 0 gusting 1 25.6
2015-Aug-01 10:40 099 2 gusting 4 25.6
2015-Aug-01 10:29 105 1 gusting 2 25.6
2015-Aug-01 10:19 097 0 gusting 2 25.6
2015-Aug-01 10:09 104 1 gusting 1 25.6
2015-Aug-01 09:59 095 1 gusting 1 25.6
2015-Aug-01 09:49 097 0 gusting 1 25.6
2015-Aug-01 09:39 060 25.6
2015-Aug-01 09:30 089 0 gusting 2 25.6
2015-Aug-01 09:19 101 1 gusting 2 25.6
2015-Aug-01 09:09 126 0 gusting 1 25.6
2015-Aug-01 08:59 070 1 gusting 1 25.6
2015-Aug-01 08:49 088 0 gusting 0 25.6
2015-Aug-01 08:39 077 0 gusting 1 26.1
2015-Aug-01 08:29 063 1 gusting 1 25.6
2015-Aug-01 08:19 074 0 gusting 1 25.6
2015-Aug-01 08:09 101 0 gusting 1 25.6
2015-Aug-01 07:59 090 1 gusting 1 25.6
2015-Aug-01 07:49 044 1 gusting 1 25.6
2015-Aug-01 07:39 091 1 gusting 1 25.6
2015-Aug-01 07:29 135 0 gusting 1 25.6
2015-Aug-01 07:19 098 0 gusting 1 26.1
2015-Aug-01 07:09 086 0 gusting 1 26.1
2015-Aug-01 06:59 102 0 gusting 1 26.1
2015-Aug-01 06:49 107 1 gusting 1 26.1
2015-Aug-01 06:39 082 0 gusting 1 26.1
2015-Aug-01 06:29 066 0 gusting 0 26.1
2015-Aug-01 06:19 084 1 gusting 1 26.1
2015-Aug-01 06:09 057 0 gusting 1 26.1